createdAt,value
2023-03-22T00:01:44.033Z,32.67
2023-03-22T00:04:29.566Z,25.92
2023-03-22T00:07:14.923Z,28.60
2023-03-22T00:10:00.539Z,26.02
2023-03-22T00:12:46.570Z,30.20
2023-03-22T00:15:32.015Z,26.83
2023-03-22T00:18:19.026Z,26.05
2023-03-22T00:21:04.591Z,25.15
2023-03-22T00:23:50.761Z,27.30
2023-03-22T00:26:36.149Z,28.58
2023-03-22T00:29:22.752Z,28.85
2023-03-22T00:32:07.842Z,22.25
2023-03-22T00:34:53.297Z,27.05
2023-03-22T00:37:38.864Z,26.92
2023-03-22T00:40:24.079Z,26.50
2023-03-22T00:43:09.536Z,25.30
2023-03-22T00:45:54.755Z,23.40
2023-03-22T00:48:40.156Z,26.92
2023-03-22T00:51:25.503Z,28.10
2023-03-22T00:54:10.880Z,21.15
2023-03-22T00:56:56.479Z,31.33
2023-03-22T00:59:42.860Z,24.98
2023-03-22T01:02:29.649Z,25.50
2023-03-22T01:05:15.831Z,23.33
2023-03-22T01:08:08.229Z,20.42
2023-03-22T01:10:53.710Z,22.80
2023-03-22T01:13:39.368Z,25.20
2023-03-22T01:16:24.588Z,21.50
2023-03-22T01:19:10.296Z,23.98
2023-03-22T01:21:55.626Z,22.40
2023-03-22T01:24:41.322Z,24.95
2023-03-22T01:27:26.824Z,23.80
2023-03-22T01:30:12.761Z,22.92
2023-03-22T01:32:57.825Z,25.42
2023-03-22T01:35:43.498Z,25.10
2023-03-22T01:38:29.774Z,25.73
2023-03-22T01:41:19.199Z,23.88
2023-03-22T01:44:15.889Z,24.75
2023-03-22T01:47:01.524Z,29.88
2023-03-22T01:49:47.292Z,23.42
2023-03-22T01:52:32.723Z,25.27
2023-03-22T01:58:18.058Z,21.05
2023-03-22T02:01:11.530Z,22.73
2023-03-22T02:04:12.197Z,28.52
2023-03-22T02:06:58.834Z,24.73
2023-03-22T02:09:48.073Z,25.85
2023-03-22T02:12:52.856Z,23.70
2023-03-22T02:16:22.449Z,23.15
2023-03-22T02:19:45.402Z,21.70
2023-03-22T02:22:46.654Z,22.77
2023-03-22T02:26:14.457Z,21.90
2023-03-22T02:29:19.175Z,24.70
2023-03-22T02:32:46.570Z,24.75
2023-03-22T02:35:46.167Z,24.02
2023-03-22T02:38:48.638Z,23.83
2023-03-22T02:41:50.691Z,20.73
2023-03-22T02:44:45.522Z,29.15
2023-03-22T02:47:39.653Z,26.15
2023-03-22T02:50:30.786Z,22.48
2023-03-22T02:53:45.462Z,21.45
2023-03-22T02:56:51.545Z,24.48
2023-03-22T02:59:39.788Z,24.83
2023-03-22T03:02:28.049Z,21.45
2023-03-22T03:05:14.875Z,21.52
2023-03-22T03:08:02.543Z,21.83
2023-03-22T03:10:50.212Z,22.75
2023-03-22T03:13:35.855Z,23.58
2023-03-22T03:16:26.538Z,26.77
2023-03-22T03:19:25.407Z,22.80
2023-03-22T03:22:27.858Z,26.27
2023-03-22T03:25:22.803Z,23.83
2023-03-22T03:28:14.944Z,25.42
2023-03-22T03:31:07.845Z,24.55
2023-03-22T03:34:25.532Z,23.98
2023-03-22T03:37:18.524Z,22.83
2023-03-22T03:40:10.730Z,23.08
2023-03-22T03:42:59.818Z,25.88
2023-03-22T03:45:45.651Z,22.80
2023-03-22T03:48:34.133Z,24.08
2023-03-22T03:51:19.784Z,24.60
2023-03-22T03:54:05.000Z,23.88
2023-03-22T03:56:50.814Z,24.73
2023-03-22T03:59:36.363Z,26.02
2023-03-22T04:02:29.214Z,21.73
2023-03-22T04:05:18.272Z,24.70
2023-03-22T04:08:03.690Z,21.52
2023-03-22T04:10:52.105Z,22.90
2023-03-22T04:13:39.044Z,23.63
2023-03-22T04:16:29.565Z,22.77
2023-03-22T04:19:15.344Z,23.73
2023-03-22T04:22:00.962Z,20.98
2023-03-22T04:24:49.999Z,23.13
2023-03-22T04:27:36.683Z,22.27
2023-03-22T04:30:27.446Z,24.00
2023-03-22T04:33:32.373Z,23.88
2023-03-22T04:36:39.501Z,24.08
2023-03-22T04:39:42.630Z,24.90
2023-03-22T04:42:47.161Z,28.63
2023-03-22T04:45:39.181Z,27.13
2023-03-22T04:48:27.952Z,21.58
2023-03-22T04:51:14.092Z,23.38
2023-03-22T04:54:08.585Z,21.35
2023-03-22T04:56:57.392Z,21.67
2023-03-22T04:59:45.354Z,24.33
2023-03-22T05:02:31.209Z,27.02
2023-03-22T05:05:16.551Z,23.50
2023-03-22T05:08:02.901Z,23.05
2023-03-22T05:10:48.265Z,24.30
2023-03-22T05:13:34.309Z,23.02
2023-03-22T05:16:19.680Z,25.15
2023-03-22T05:19:14.046Z,23.63
2023-03-22T05:22:03.410Z,26.35
2023-03-22T05:25:10.707Z,23.95
2023-03-22T05:28:01.592Z,24.45
2023-03-22T05:31:14.501Z,27.02
2023-03-22T05:34:10.121Z,23.98
2023-03-22T05:36:57.664Z,23.48
2023-03-22T05:39:48.214Z,26.10
2023-03-22T05:42:33.618Z,22.73
2023-03-22T05:45:22.725Z,25.52
2023-03-22T05:48:17.974Z,27.70
2023-03-22T05:51:08.375Z,26.15
2023-03-22T05:53:54.393Z,21.40
2023-03-22T05:59:29.321Z,21.95
2023-03-22T06:02:14.715Z,25.77
2023-03-22T06:04:59.766Z,25.02
2023-03-22T06:07:45.061Z,27.13
2023-03-22T06:10:34.822Z,26.85
2023-03-22T06:13:20.748Z,25.25
2023-03-22T06:16:08.804Z,27.08
2023-03-22T06:18:54.009Z,20.95
2023-03-22T06:21:39.501Z,21.67
2023-03-22T06:24:25.543Z,19.48
2023-03-22T06:27:11.185Z,23.13
2023-03-22T06:29:58.340Z,24.75
2023-03-22T06:32:45.153Z,24.55
2023-03-22T06:35:31.550Z,24.40
2023-03-22T06:38:18.529Z,25.63
2023-03-22T06:41:03.981Z,28.75
2023-03-22T06:43:49.418Z,26.55
2023-03-22T06:46:52.982Z,24.70
2023-03-22T06:50:01.099Z,21.73
2023-03-22T06:53:06.468Z,24.25
2023-03-22T06:55:54.951Z,22.77
2023-03-22T06:58:42.772Z,24.77
2023-03-22T07:01:28.384Z,28.02
2023-03-22T07:04:14.388Z,23.67
2023-03-22T07:07:05.589Z,28.20
2023-03-22T07:10:12.977Z,23.75
2023-03-22T07:12:58.142Z,23.67
2023-03-22T07:15:43.923Z,23.40
2023-03-22T07:18:40.739Z,25.85
2023-03-22T07:21:26.864Z,26.38
2023-03-22T07:24:18.702Z,22.38
2023-03-22T07:27:04.862Z,27.25
2023-03-22T07:29:51.917Z,32.80
2023-03-22T07:32:40.601Z,26.30
2023-03-22T07:35:31.983Z,25.17
2023-03-22T07:38:17.305Z,23.40
2023-03-22T07:41:02.976Z,22.80
2023-03-22T07:44:17.205Z,26.17
2023-03-22T07:47:13.754Z,28.57
2023-03-22T07:50:05.241Z,22.55
2023-03-22T07:52:51.620Z,21.02
2023-03-22T07:55:38.011Z,23.17
2023-03-22T07:58:23.501Z,22.38
2023-03-22T08:01:09.455Z,29.25
2023-03-22T08:04:13.399Z,26.10
2023-03-22T08:07:09.883Z,22.50
2023-03-22T08:09:58.279Z,23.73
2023-03-22T08:12:44.011Z,25.40
2023-03-22T08:15:37.381Z,22.02
2023-03-22T08:18:23.426Z,23.88
2023-03-22T08:21:08.504Z,18.75
2023-03-22T08:23:54.785Z,18.08
2023-03-22T08:27:02.313Z,20.98
2023-03-22T08:29:58.709Z,17.90
2023-03-22T08:32:44.252Z,17.70
2023-03-22T08:35:29.492Z,19.02
2023-03-22T08:38:14.916Z,28.63
2023-03-22T08:41:05.390Z,19.50
2023-03-22T08:43:50.823Z,22.20
2023-03-22T08:46:36.340Z,19.50
2023-03-22T08:49:22.918Z,21.42
2023-03-22T08:52:16.300Z,16.92
2023-03-22T08:55:17.279Z,19.73
2023-03-22T08:58:21.921Z,19.30
2023-03-22T09:01:32.885Z,20.05
2023-03-22T09:04:21.200Z,21.52
2023-03-22T09:07:06.680Z,16.65
2023-03-22T09:09:52.255Z,17.40
2023-03-22T09:12:38.644Z,22.65
2023-03-22T09:15:24.186Z,16.67
2023-03-22T09:18:27.462Z,16.10
2023-03-22T09:21:16.525Z,19.00
2023-03-22T09:24:09.659Z,20.35
2023-03-22T09:27:00.805Z,20.08
2023-03-22T09:29:46.180Z,18.58
2023-03-22T09:32:34.913Z,16.07
2023-03-22T09:35:22.699Z,15.70
2023-03-22T09:38:21.458Z,16.80
2023-03-22T09:41:13.067Z,14.80
2023-03-22T09:44:06.405Z,26.40
2023-03-22T09:46:58.918Z,40.08
2023-03-22T09:49:53.672Z,21.13
2023-03-22T09:52:40.771Z,24.98
2023-03-22T09:55:50.416Z,24.92
2023-03-22T09:58:55.224Z,15.35
2023-03-22T10:01:48.083Z,15.68
2023-03-22T10:04:36.636Z,13.30
2023-03-22T10:07:52.591Z,16.20
2023-03-22T10:10:43.061Z,16.45
2023-03-22T10:13:39.589Z,16.88
2023-03-22T10:16:33.129Z,11.43
2023-03-22T10:19:54.004Z,13.77
2023-03-22T10:22:44.116Z,13.63
2023-03-22T10:25:41.237Z,12.15
2023-03-22T10:28:39.616Z,16.42
2023-03-22T10:31:27.956Z,16.98
2023-03-22T10:34:24.554Z,16.20
2023-03-22T10:37:33.353Z,15.57
2023-03-22T10:40:24.671Z,15.30
2023-03-22T10:43:23.298Z,11.75
2023-03-22T10:46:17.853Z,15.37
2023-03-22T10:49:04.963Z,10.63
2023-03-22T10:51:54.391Z,20.52
2023-03-22T10:54:40.474Z,15.05
2023-03-22T10:57:28.375Z,13.20
2023-03-22T11:00:17.498Z,11.45
2023-03-22T11:03:05.420Z,11.70
2023-03-22T11:06:13.495Z,14.07
2023-03-22T11:09:26.381Z,11.75
2023-03-22T11:12:13.135Z,9.10
2023-03-22T11:14:58.925Z,11.23
2023-03-22T11:17:44.433Z,10.48
2023-03-22T11:20:31.123Z,12.30
2023-03-22T11:23:17.972Z,10.77
2023-03-22T11:26:12.238Z,9.85
2023-03-22T11:29:05.462Z,10.65
2023-03-22T11:31:59.120Z,9.65
2023-03-22T11:34:46.446Z,9.02
2023-03-22T11:37:31.983Z,11.30
2023-03-22T11:40:29.670Z,10.80
2023-03-22T11:43:24.752Z,9.52
2023-03-22T11:46:12.217Z,10.00
2023-03-22T11:49:04.562Z,7.10
2023-03-22T11:51:50.004Z,8.05
2023-03-22T11:54:36.844Z,9.45
2023-03-22T11:57:33.992Z,10.45
2023-03-22T12:00:32.338Z,10.88
2023-03-22T12:03:23.035Z,11.25
2023-03-22T12:06:34.813Z,9.18
2023-03-22T12:09:44.587Z,8.18
2023-03-22T12:12:35.957Z,9.02
2023-03-22T12:15:24.278Z,11.05
2023-03-22T12:18:19.935Z,10.82
2023-03-22T12:21:05.624Z,13.05
2023-03-22T12:24:03.512Z,11.00
2023-03-22T12:26:54.195Z,15.95
2023-03-22T12:29:45.701Z,9.77
2023-03-22T12:32:38.611Z,8.27
2023-03-22T12:35:29.428Z,11.63
2023-03-22T12:38:28.110Z,9.63
2023-03-22T12:41:17.845Z,8.20
2023-03-22T12:44:12.640Z,10.63
2023-03-22T12:47:03.368Z,9.73
2023-03-22T12:50:15.347Z,10.77
2023-03-22T12:53:02.372Z,9.88
2023-03-22T12:55:49.339Z,8.85
2023-03-22T12:58:36.804Z,7.47
2023-03-22T13:01:39.609Z,8.25
2023-03-22T13:04:37.640Z,4.05
2023-03-22T13:07:31.789Z,9.13
2023-03-22T13:10:40.421Z,10.27
2023-03-22T13:13:29.154Z,11.35
2023-03-22T13:16:14.850Z,8.63
2023-03-22T13:19:02.159Z,3.75
2023-03-22T13:21:51.038Z,5.50
2023-03-22T13:25:16.879Z,8.40
2023-03-22T13:28:20.221Z,8.77
2023-03-22T13:31:06.511Z,5.72
2023-03-22T13:33:53.422Z,14.05
2023-03-22T13:36:39.545Z,9.82
2023-03-22T13:39:27.261Z,5.05
2023-03-22T13:42:20.980Z,7.53
2023-03-22T13:45:31.909Z,5.20
2023-03-22T13:48:43.838Z,5.35
2023-03-22T13:51:31.984Z,8.73
2023-03-22T13:54:24.492Z,5.28
2023-03-22T13:57:37.651Z,4.45
2023-03-22T14:00:29.320Z,6.93
2023-03-22T14:03:23.008Z,5.28
2023-03-22T14:06:14.828Z,4.88
2023-03-22T14:09:24.052Z,7.97
2023-03-22T14:12:46.887Z,6.70
2023-03-22T14:15:41.269Z,5.07
2023-03-22T14:18:29.409Z,4.53
2023-03-22T14:21:34.688Z,8.07
